createdAt,value
2023-04-25T00:00:40.724Z,13.32
2023-04-25T00:05:44.033Z,14.98
2023-04-25T00:10:47.552Z,13.68
2023-04-25T00:15:52.752Z,10.32
2023-04-25T00:20:56.429Z,10.75
2023-04-25T00:25:59.824Z,11.30
2023-04-25T00:31:04.969Z,10.20
2023-04-25T00:36:09.566Z,10.25
2023-04-25T00:41:13.030Z,10.55
2023-04-25T00:46:17.875Z,9.77
2023-04-25T00:51:23.326Z,9.70
2023-04-25T00:56:26.753Z,11.27
2023-04-25T01:01:32.366Z,9.80
2023-04-25T01:06:35.775Z,9.10
2023-04-25T01:11:41.246Z,9.93
2023-04-25T01:16:46.335Z,9.73
2023-04-25T01:21:51.140Z,9.88
2023-04-25T01:26:57.404Z,10.07
2023-04-25T01:32:01.553Z,9.88
2023-04-25T01:37:06.701Z,8.73
2023-04-25T01:42:10.012Z,9.82
2023-04-25T01:47:13.305Z,9.35
2023-04-25T01:52:17.979Z,10.93
2023-04-25T01:57:21.499Z,12.00
2023-04-25T02:02:25.018Z,11.20
2023-04-25T02:07:29.974Z,10.52
2023-04-25T02:12:33.504Z,10.55
2023-04-25T02:17:36.913Z,11.15
2023-04-25T02:22:41.764Z,10.88
2023-04-25T02:27:45.116Z,12.18
2023-04-25T02:32:49.116Z,11.95
2023-04-25T02:37:54.159Z,11.25
2023-04-25T02:42:57.466Z,11.07
2023-04-25T02:48:00.995Z,11.02
2023-04-25T02:53:05.792Z,11.23
2023-04-25T02:58:09.146Z,9.98
2023-04-25T03:03:12.963Z,9.90
2023-04-25T03:08:18.251Z,9.98
2023-04-25T03:13:21.441Z,9.45
2023-04-25T03:18:25.042Z,10.50
2023-04-25T03:23:29.770Z,9.25
2023-04-25T03:28:32.973Z,10.63
2023-04-25T03:33:36.239Z,9.63
2023-04-25T03:38:42.436Z,14.02
2023-04-25T03:43:45.682Z,15.15
2023-04-25T03:48:49.004Z,11.70
2023-04-25T03:53:54.280Z,9.57
2023-04-25T03:58:58.061Z,10.00
2023-04-25T04:04:01.581Z,10.40
2023-04-25T04:09:10.022Z,10.75
2023-04-25T04:14:13.389Z,10.02
2023-04-25T04:19:16.917Z,10.05
2023-04-25T04:24:21.677Z,10.18
2023-04-25T04:29:24.975Z,8.77
2023-04-25T04:34:28.440Z,9.45
2023-04-25T04:39:33.248Z,9.20
2023-04-25T04:44:38.035Z,9.55
2023-04-25T04:49:41.326Z,10.13
2023-04-25T04:54:46.120Z,9.13
2023-04-25T04:59:49.321Z,9.50
2023-04-25T05:04:52.836Z,9.20
2023-04-25T05:09:57.691Z,7.72
2023-04-25T05:15:01.395Z,6.75
2023-04-25T05:20:06.905Z,8.70
2023-04-25T05:25:12.285Z,8.70
2023-04-25T05:30:15.709Z,7.75
2023-04-25T05:35:19.141Z,5.80
2023-04-25T05:40:23.913Z,6.30
2023-04-25T05:45:27.535Z,6.13
2023-04-25T05:50:30.964Z,7.22
2023-04-25T05:55:35.562Z,5.93
2023-04-25T06:00:39.411Z,6.00
2023-04-25T06:05:43.315Z,5.80
2023-04-25T06:10:47.974Z,5.43
2023-04-25T06:15:51.416Z,5.70
2023-04-25T06:20:54.747Z,4.90
2023-04-25T06:25:59.757Z,5.38
2023-04-25T06:31:03.182Z,4.20
2023-04-25T06:36:06.955Z,5.72
2023-04-25T06:41:11.775Z,4.28
2023-04-25T06:46:15.200Z,4.78
2023-04-25T06:51:18.889Z,4.15
2023-04-25T06:56:24.400Z,4.10
2023-04-25T07:01:27.816Z,4.10
2023-04-25T07:06:32.238Z,3.95
2023-04-25T07:11:36.982Z,4.05
2023-04-25T07:16:40.887Z,3.83
2023-04-25T07:21:44.304Z,3.47
2023-04-25T07:26:49.182Z,3.60
2023-04-25T07:31:52.699Z,3.55
2023-04-25T07:36:56.360Z,3.25
2023-04-25T07:42:01.581Z,2.88
2023-04-25T07:47:05.599Z,3.17
2023-04-25T07:52:08.962Z,3.58
2023-04-25T07:57:15.132Z,3.83
2023-04-25T08:02:18.843Z,3.88
2023-04-25T08:07:22.034Z,3.70
2023-04-25T08:12:27.207Z,3.42
2023-04-25T08:17:30.461Z,3.03
2023-04-25T08:22:34.989Z,3.10
2023-04-25T08:27:39.679Z,3.40
2023-04-25T08:32:43.155Z,3.95
2023-04-25T08:37:46.613Z,3.67
2023-04-25T08:42:52.806Z,4.20
2023-04-25T08:47:59.459Z,4.30
2023-04-25T08:53:07.500Z,3.95
2023-04-25T08:58:13.468Z,3.87
2023-04-25T09:03:17.210Z,3.10
2023-04-25T09:08:20.600Z,3.05
2023-04-25T09:13:30.214Z,2.85
2023-04-25T09:18:35.255Z,3.00
2023-04-25T09:23:43.133Z,2.75
2023-04-25T09:28:49.080Z,2.67
2023-04-25T09:33:55.299Z,2.40
2023-04-25T09:39:01.940Z,2.40
2023-04-25T09:44:06.936Z,2.70
2023-04-25T09:49:10.548Z,2.17
2023-04-25T09:54:14.192Z,2.30
2023-04-25T09:59:20.123Z,1.90
2023-04-25T10:04:29.646Z,2.38
2023-04-25T10:09:35.016Z,2.33
2023-04-25T10:14:40.654Z,2.40
2023-04-25T10:19:44.552Z,2.50
2023-04-25T10:24:49.189Z,2.20
2023-04-25T10:30:06.299Z,3.75
2023-04-25T10:35:16.522Z,2.55
2023-04-25T10:40:24.427Z,2.67
2023-04-25T10:45:29.239Z,2.72
2023-04-25T10:50:40.349Z,2.35
2023-04-25T10:55:52.856Z,3.45
2023-04-25T11:00:58.023Z,2.65
2023-04-25T11:06:03.520Z,3.05
2023-04-25T11:34:39.663Z,2.83
2023-04-25T11:39:47.553Z,2.80
2023-04-25T11:44:52.383Z,2.50
2023-04-25T11:49:55.883Z,2.67
2023-04-25T11:54:59.229Z,2.70
2023-04-25T12:00:12.964Z,2.70
2023-04-25T12:10:26.777Z,3.20
2023-04-25T12:15:31.915Z,2.95
2023-04-25T12:20:35.495Z,2.80
2023-04-25T12:25:40.600Z,2.75
2023-04-25T12:31:02.013Z,3.50
2023-04-25T12:36:10.386Z,2.97
2023-04-25T12:41:13.702Z,2.97
2023-04-25T12:46:18.455Z,2.70
2023-04-25T12:51:21.833Z,2.95
2023-04-25T12:56:25.929Z,3.40
2023-04-25T13:01:31.058Z,3.10
2023-04-25T13:06:34.482Z,3.03
2023-04-25T13:11:37.851Z,3.10
2023-04-25T13:16:42.991Z,3.38
2023-04-25T13:21:46.352Z,3.33
2023-04-25T13:26:49.867Z,3.30
2023-04-25T13:50:08.360Z,3.53
2023-04-25T13:55:11.985Z,3.80
2023-04-25T14:00:16.261Z,4.45
2023-04-25T14:05:21.266Z,4.47
2023-04-25T14:10:24.717Z,4.25
2023-04-25T14:15:28.501Z,4.85
2023-04-25T14:20:33.476Z,5.10
2023-04-25T14:25:37.950Z,5.05
2023-04-25T14:30:41.186Z,4.30
2023-04-25T14:35:46.719Z,4.68
2023-04-25T14:40:50.121Z,4.80
2023-04-25T14:45:54.437Z,4.28
2023-04-25T14:51:00.864Z,3.70
2023-04-25T14:56:04.273Z,4.55
2023-04-25T15:01:07.844Z,6.30
2023-04-25T15:06:12.716Z,4.78
2023-04-25T15:11:16.176Z,3.95
2023-04-25T15:16:19.576Z,4.50
2023-04-25T15:21:24.454Z,4.40
2023-04-25T15:26:28.051Z,4.95
2023-04-25T15:31:31.511Z,5.32
2023-04-25T15:36:36.328Z,5.68
2023-04-25T15:41:39.707Z,4.88
2023-04-25T15:46:44.568Z,4.15
2023-04-25T15:51:49.640Z,4.60
2023-04-25T15:56:52.881Z,4.25
2023-04-25T16:01:57.299Z,3.95
2023-04-25T16:07:03.698Z,5.00
2023-04-25T16:12:08.271Z,5.30
2023-04-25T16:17:11.592Z,4.65
2023-04-25T16:22:16.933Z,4.72
2023-04-25T16:27:20.261Z,4.57
2023-04-25T16:32:23.668Z,4.10
2023-04-25T16:37:28.591Z,4.45
2023-04-25T16:42:31.943Z,5.00
2023-04-25T16:47:36.563Z,5.18
2023-04-25T16:52:42.476Z,4.80
2023-04-25T16:57:47.583Z,4.13
2023-04-25T17:02:51.105Z,4.63
2023-04-25T17:07:56.960Z,5.45
2023-04-25T17:13:00.598Z,5.65
2023-04-25T17:18:04.099Z,5.45
2023-04-25T17:23:08.931Z,5.97
2023-04-25T17:28:13.176Z,6.15
2023-04-25T17:33:16.527Z,6.82
2023-04-25T17:38:21.755Z,6.60
2023-04-25T17:43:25.256Z,6.53
2023-04-25T17:48:28.690Z,6.90
2023-04-25T17:53:33.643Z,7.47
2023-04-25T17:58:37.102Z,8.63
2023-04-25T18:03:42.102Z,8.43
2023-04-25T18:08:47.951Z,9.45
2023-04-25T18:13:51.441Z,9.02
2023-04-25T18:18:55.148Z,9.30
2023-04-25T18:23:59.966Z,11.95
2023-04-25T18:29:03.748Z,15.68
2023-04-25T18:34:07.385Z,19.13
2023-04-25T18:39:21.942Z,22.35
2023-04-25T18:44:26.083Z,26.30
2023-04-25T18:49:29.683Z,19.17
2023-04-25T18:54:34.409Z,14.70
2023-04-25T18:59:37.697Z,20.48
2023-04-25T19:04:40.976Z,14.95
2023-04-25T19:09:45.669Z,11.73
2023-04-25T19:14:50.525Z,13.63
2023-04-25T19:19:54.290Z,15.80
2023-04-25T19:25:09.836Z,17.63
2023-04-25T19:30:14.678Z,17.25
2023-04-25T19:35:18.293Z,17.00
2023-04-25T19:40:23.607Z,12.90
2023-04-25T19:45:27.066Z,12.63
2023-04-25T19:50:30.889Z,12.90
2023-04-25T19:55:35.904Z,13.55
2023-04-25T20:00:39.316Z,24.70
2023-04-25T20:05:42.598Z,17.17
2023-04-25T20:10:47.492Z,25.05
2023-04-25T20:15:50.763Z,23.90
2023-04-25T20:20:55.464Z,26.23
2023-04-25T20:26:00.116Z,22.30
2023-04-25T20:31:03.398Z,20.60
2023-04-25T20:36:06.922Z,16.48
2023-04-25T20:41:11.754Z,13.20
2023-04-25T20:46:16.154Z,14.38
2023-04-25T20:51:20.421Z,16.13
2023-04-25T20:56:26.622Z,20.17
2023-04-25T21:01:30.325Z,11.82
2023-04-25T21:06:34.655Z,11.50
2023-04-25T21:11:39.643Z,12.40
2023-04-25T21:16:42.989Z,11.00
2023-04-25T21:21:47.528Z,11.45
2023-04-25T21:26:52.206Z,11.02
2023-04-25T21:31:56.812Z,10.93
2023-04-25T21:37:00.047Z,10.00
2023-04-25T21:42:06.376Z,11.10
2023-04-25T21:47:09.761Z,10.95
2023-04-25T21:52:13.237Z,10.80
2023-04-25T21:57:18.354Z,10.63
2023-04-25T22:02:22.050Z,10.65
2023-04-25T22:07:25.484Z,10.10
2023-04-25T22:12:30.273Z,9.60
2023-04-25T22:17:34.099Z,9.45
2023-04-25T22:22:37.285Z,10.32
2023-04-25T22:27:43.007Z,10.82
2023-04-25T22:32:46.583Z,10.70
2023-04-25T22:37:50.457Z,11.02
2023-04-25T22:42:55.544Z,10.35
2023-04-25T22:47:58.857Z,11.35
2023-04-25T22:53:04.128Z,12.00
2023-04-25T22:58:09.636Z,12.95
2023-04-25T23:03:13.346Z,13.27
2023-04-25T23:08:17.241Z,13.25
2023-04-25T23:13:22.215Z,12.63
2023-04-25T23:18:25.509Z,13.18
2023-04-25T23:23:28.845Z,14.68
2023-04-25T23:28:33.482Z,13.18
2023-04-25T23:33:37.117Z,14.13
2023-04-25T23:38:40.472Z,13.27
2023-04-25T23:43:45.193Z,12.95
2023-04-25T23:48:48.361Z,13.80
2023-04-25T23:53:51.969Z,13.85
2023-04-25T23:58:56.800Z,16.30
